Aérodrome :
LOGIN :

S'inscrire | Disclaimer

   EN    FR    IT 

 










Légende :    VFR   VFR Marginal   IFR   IFR Intensif   IFR Très Intensif
Visi : 
Plafond : 
>= 8 km
>= 3000ft
5 à 8 km
1000 à 3000 ft
1500m à 5 km
500 à 1000 ft
800 à 1500m
200 à 500 ft
< 800m
< 200 ft
Symboles :   Orages  Brouillard  Fortes neiges  Fortes précipitations  Vent > 20 kt
SIGMETs :   Divers  Orages  Givrage  Turbulence  Onde Orograph.  Cendres Volcan.






- Altitude de l'aérodrome : 147 ft
- Code IATA : DUS


EDDL - Düsseldorf Int.

DERNIER METAR :
  • 180550Z 33005KT 3100 -DZ FEW003 BKN004 OVC006 05/05 Q1005 REDZ TEMPO 2500 BKN006

METARs EXPIRÉS :
  • 180520Z 34006KT 310V010 3500 -DZ FEW003 BKN004 OVC006 04/04 Q1005 REDZ TEMPO 2500 BKN006
  • 180450Z 31007KT 3200 DZ FEW003 BKN004 OVC006 04/04 Q1005 TEMPO 2500
  • 180420Z 32007KT 3500 DZ SCT004 BKN005 OVC007 04/04 Q1005 TEMPO 2500 BKN004
  • 180350Z 33007KT 5000 -DZ FEW004 OVC006 04/04 Q1005 TEMPO BKN004
  • 180320Z 33008KT 6000 -DZ SCT005 OVC007 04/04 Q1005 NOSIG

TAF TAF EDDL
Valide du 18 à 06h jusqu'au 19 à 12h UTC


180500Z 1806/1912 32007KT 6000 SCT008 OVC012
TEMPO 1806/1811 VRB03KT 2000 -DZRA BKN004
BECMG 1811/1814 24010KT
TEMPO 1811/1822 3000 +DZRA BKN006
BECMG 1818/1821 25015KT
TEMPO 1900/1912 BKN020



MET'MAP, la Météo Aéronautique d'un coup d'oeil ! - Copyright ORBIFLY Décembre 2007 - Disclaimer

ORBIFLY MET'MAP TEAM :

Programmation & Développement : Alexandra Zaïnal
Conception & Développement : Baudouin d'Aumeries
Co-Programmation & Développement : Marc-Olivier Méhu
Soutien technique & logistique : Manuel Goepfert

Contact : metmap@orbifly.com




SOURCES & CREDITS :

   NOAA